31/8 a 10/9 - Eventos de tormentas N patagónico, centro y NEA; CG al final [granizo Mendoza/NEA]

Avatar de Usuario
Diecha
Mensajes: 17698
Registrado: Jue Ago 25, 2011 9:31 pm
Ubicación: Lomas de Zamora

Re: 31/8 a 10/9 - Eventos de tormentas N patagónico, centro y NEA

Mensaje por Diecha » Mié Sep 01, 2021 5:23 pm



Imagen
Imagen
Imagen
Última edición por Diecha el Mié Sep 01, 2021 7:09 pm, editado 1 vez en total.

Avatar de Usuario
Ezequiel1995
Mensajes: 2325
Registrado: Mar Nov 12, 2019 4:50 pm
Ubicación: Merlo, Buenos Aires
Contactar:

Re: 31/8 a 10/9 - Eventos de tormentas N patagónico, centro y NEA

Mensaje por Ezequiel1995 » Mié Sep 01, 2021 5:38 pm

Lindas ráfagas se levantaron por acá
#MuerteALasLineas (by Fedex)
Aplicación Gustfront! 2.5

Avatar de Usuario
Diecha
Mensajes: 17698
Registrado: Jue Ago 25, 2011 9:31 pm
Ubicación: Lomas de Zamora

Re: 31/8 a 10/9 - Eventos de tormentas N patagónico, centro y NEA

Mensaje por Diecha » Mié Sep 01, 2021 5:44 pm


Avatar de Usuario
Ezequiel1995
Mensajes: 2325
Registrado: Mar Nov 12, 2019 4:50 pm
Ubicación: Merlo, Buenos Aires
Contactar:

Re: 31/8 a 10/9 - Eventos de tormentas N patagónico, centro y NEA

Mensaje por Ezequiel1995 » Mié Sep 01, 2021 5:59 pm

Otra vez muy oscuro por acá
#MuerteALasLineas (by Fedex)
Aplicación Gustfront! 2.5

Avatar de Usuario
pupy
Mensajes: 2670
Registrado: Mar Mar 02, 2010 7:15 pm
Ubicación: Cordoba capital

Re: 31/8 a 10/9 - Eventos de tormentas N patagónico, centro y NEA

Mensaje por pupy » Mié Sep 01, 2021 6:08 pm

HernanCba escribió:
Mié Sep 01, 2021 5:22 pm
Todas las tormenta se forman al este, casi al límite de la ciudad de Cba. ¿Perdimos la fe?
Durante la noche seguro activan tormentas ! ten paciencia amiguito... :mrgreen: :mrgreen:

Avatar de Usuario
Ale de Castelar
Mensajes: 30521
Registrado: Sab Mar 03, 2012 12:25 pm
Ubicación: Caballito

Re: 31/8 a 10/9 - Eventos de tormentas N patagónico, centro y NEA

Mensaje por Ale de Castelar » Mié Sep 01, 2021 6:11 pm

Bragado


Avatar de Usuario
fmpiscitelli
Mensajes: 4490
Registrado: Lun Ene 11, 2010 1:32 pm
Ubicación: Parque Saavedra, Ciudad de Bs As
Contactar:

Re: 31/8 a 10/9 - Eventos de tormentas N patagónico, centro y NEA

Mensaje por fmpiscitelli » Mié Sep 01, 2021 6:27 pm

Imagen

Se viene la del Norte ...
"La insolencia colectiva tiene un solo antidoto, la responsabilidad Individual"

Avatar de Usuario
Diecha
Mensajes: 17698
Registrado: Jue Ago 25, 2011 9:31 pm
Ubicación: Lomas de Zamora

Re: 31/8 a 10/9 - Eventos de tormentas N patagónico, centro y NEA

Mensaje por Diecha » Mié Sep 01, 2021 6:29 pm

- San Fernando 18 hs: SADF 012100Z 11014G24KT 9000 -RA SCT016 BKN036 17/15 Q1013 (ráfaga de 44 Km/h)
- Aeroparque 18 hs: SABE 012100Z 13015G25KT 9000 -RA SCT013 OVC070 16/15 Q1015 (ráfaga de 46 Km/h)
- Ezeiza 18 hs: SAEZ 012100Z 12013KT 9999 FEW010 OVC040 16/14 Q1015

Imagen
Imagen
Última edición por Diecha el Mié Sep 01, 2021 7:12 pm, editado 2 veces en total.

Avatar de Usuario
Ernest
Mensajes: 13657
Registrado: Vie Jul 17, 2009 10:54 pm
Ubicación: Balvanera, CABA

Re: 31/8 a 10/9 - Eventos de tormentas N patagónico, centro y NEA

Mensaje por Ernest » Mié Sep 01, 2021 6:30 pm

Truenos y relámpagos por Once. Empezó la fiesta.
Did you want to talk about the weather, or were you just making chitchat?

Twitter: @ErnestoAtmoII

Avatar de Usuario
Ezequiel1995
Mensajes: 2325
Registrado: Mar Nov 12, 2019 4:50 pm
Ubicación: Merlo, Buenos Aires
Contactar:

Re: 31/8 a 10/9 - Eventos de tormentas N patagónico, centro y NEA

Mensaje por Ezequiel1995 » Mié Sep 01, 2021 6:34 pm

bombazo
#MuerteALasLineas (by Fedex)
Aplicación Gustfront! 2.5

Responder